sensor_id;sensor_type;location;lat;lon;timestamp;temperature;humidity
69546;SHT31;56766;52.260;20.746;2024-03-22T00:02:14;8.81;86.00
69546;SHT31;56766;52.260;20.746;2024-03-22T00:04:41;8.82;85.96
69546;SHT31;56766;52.260;20.746;2024-03-22T00:07:08;8.83;86.00
69546;SHT31;56766;52.260;20.746;2024-03-22T00:09:34;8.83;85.96
69546;SHT31;56766;52.260;20.746;2024-03-22T00:12:01;8.84;85.88
69546;SHT31;56766;52.260;20.746;2024-03-22T00:14:27;8.85;85.96
69546;SHT31;56766;52.260;20.746;2024-03-22T00:16:54;8.85;86.09
69546;SHT31;56766;52.260;20.746;2024-03-22T00:19:21;8.86;86.02
69546;SHT31;56766;52.260;20.746;2024-03-22T00:21:47;8.88;86.12
69546;SHT31;56766;52.260;20.746;2024-03-22T00:24:14;8.88;86.35
69546;SHT31;56766;52.260;20.746;2024-03-22T00:26:40;8.88;86.51
69546;SHT31;56766;52.260;20.746;2024-03-22T00:29:07;8.87;86.61
69546;SHT31;56766;52.260;20.746;2024-03-22T00:31:33;8.86;86.69
69546;SHT31;56766;52.260;20.746;2024-03-22T00:34:00;8.86;86.84
69546;SHT31;56766;52.260;20.746;2024-03-22T00:36:26;8.86;86.92
69546;SHT31;56766;52.260;20.746;2024-03-22T00:38:53;8.87;87.00
69546;SHT31;56766;52.260;20.746;2024-03-22T00:41:19;8.87;87.09
69546;SHT31;56766;52.260;20.746;2024-03-22T00:43:46;8.86;87.10
69546;SHT31;56766;52.260;20.746;2024-03-22T00:46:12;8.84;87.09
69546;SHT31;56766;52.260;20.746;2024-03-22T00:48:39;8.83;87.17
69546;SHT31;56766;52.260;20.746;2024-03-22T00:51:05;8.82;87.22
69546;SHT31;56766;52.260;20.746;2024-03-22T00:53:32;8.82;87.34
69546;SHT31;56766;52.260;20.746;2024-03-22T00:55:58;8.81;87.37
69546;SHT31;56766;52.260;20.746;2024-03-22T00:58:27;8.82;87.37
69546;SHT31;56766;52.260;20.746;2024-03-22T01:00:54;8.81;87.50
69546;SHT31;56766;52.260;20.746;2024-03-22T01:03:21;8.81;87.60
69546;SHT31;56766;52.260;20.746;2024-03-22T01:05:48;8.80;87.67
69546;SHT31;56766;52.260;20.746;2024-03-22T01:08:15;8.79;87.80
69546;SHT31;56766;52.260;20.746;2024-03-22T01:10:42;8.80;87.88
69546;SHT31;56766;52.260;20.746;2024-03-22T01:13:08;8.79;87.94
69546;SHT31;56766;52.260;20.746;2024-03-22T01:15:35;8.80;88.00
69546;SHT31;56766;52.260;20.746;2024-03-22T01:18:02;8.80;88.07
69546;SHT31;56766;52.260;20.746;2024-03-22T01:20:29;8.79;88.13
69546;SHT31;56766;52.260;20.746;2024-03-22T01:22:56;8.79;88.23
69546;SHT31;56766;52.260;20.746;2024-03-22T01:25:22;8.79;88.29
69546;SHT31;56766;52.260;20.746;2024-03-22T01:27:49;8.81;88.30
69546;SHT31;56766;52.260;20.746;2024-03-22T01:30:15;8.81;88.31
69546;SHT31;56766;52.260;20.746;2024-03-22T01:32:42;8.82;88.42
69546;SHT31;56766;52.260;20.746;2024-03-22T01:35:08;8.84;88.53
69546;SHT31;56766;52.260;20.746;2024-03-22T01:37:35;8.84;88.68
69546;SHT31;56766;52.260;20.746;2024-03-22T01:40:02;8.83;88.76
69546;SHT31;56766;52.260;20.746;2024-03-22T01:42:31;8.85;88.80
69546;SHT31;56766;52.260;20.746;2024-03-22T01:44:57;8.86;88.95
69546;SHT31;56766;52.260;20.746;2024-03-22T01:47:24;8.88;89.07
69546;SHT31;56766;52.260;20.746;2024-03-22T01:49:54;8.90;89.20
69546;SHT31;56766;52.260;20.746;2024-03-22T01:52:22;8.90;89.27
69546;SHT31;56766;52.260;20.746;2024-03-22T01:54:49;8.92;89.32
69546;SHT31;56766;52.260;20.746;2024-03-22T01:57:16;8.93;89.42
69546;SHT31;56766;52.260;20.746;2024-03-22T01:59:42;8.94;89.56
69546;SHT31;56766;52.260;20.746;2024-03-22T02:02:10;8.95;89.60
69546;SHT31;56766;52.260;20.746;2024-03-22T02:04:37;8.97;89.67
69546;SHT31;56766;52.260;20.746;2024-03-22T02:07:04;8.97;89.71
69546;SHT31;56766;52.260;20.746;2024-03-22T02:09:31;8.99;89.83
69546;SHT31;56766;52.260;20.746;2024-03-22T02:11:58;8.99;89.97
69546;SHT31;56766;52.260;20.746;2024-03-22T02:14:24;9.01;90.08
69546;SHT31;56766;52.260;20.746;2024-03-22T02:16:51;9.00;90.16
69546;SHT31;56766;52.260;20.746;2024-03-22T02:19:18;9.01;90.27
69546;SHT31;56766;52.260;20.746;2024-03-22T02:21:45;9.01;90.30
69546;SHT31;56766;52.260;20.746;2024-03-22T02:24:11;9.02;90.30
69546;SHT31;56766;52.260;20.746;2024-03-22T02:26:38;9.03;90.33
69546;SHT31;56766;52.260;20.746;2024-03-22T02:29:05;9.02;90.32
69546;SHT31;56766;52.260;20.746;2024-03-22T02:31:31;9.03;90.31
69546;SHT31;56766;52.260;20.746;2024-03-22T02:33:58;9.03;90.30
69546;SHT31;56766;52.260;20.746;2024-03-22T02:36:27;9.04;90.30
69546;SHT31;56766;52.260;20.746;2024-03-22T02:38:54;9.06;90.39
69546;SHT31;56766;52.260;20.746;2024-03-22T02:41:21;9.05;90.40
69546;SHT31;56766;52.260;20.746;2024-03-22T02:43:48;9.05;90.40
69546;SHT31;56766;52.260;20.746;2024-03-22T02:46:15;9.05;90.46
69546;SHT31;56766;52.260;20.746;2024-03-22T02:48:41;9.05;90.50
69546;SHT31;56766;52.260;20.746;2024-03-22T02:51:08;9.04;90.54
69546;SHT31;56766;52.260;20.746;2024-03-22T02:53:34;9.02;90.61
69546;SHT31;56766;52.260;20.746;2024-03-22T02:56:01;9.01;90.60
69546;SHT31;56766;52.260;20.746;2024-03-22T02:58:27;9.00;90.69
69546;SHT31;56766;52.260;20.746;2024-03-22T03:00:54;8.98;90.63
69546;SHT31;56766;52.260;20.746;2024-03-22T03:03:21;8.95;90.60
69546;SHT31;56766;52.260;20.746;2024-03-22T03:05:47;8.95;90.59
69546;SHT31;56766;52.260;20.746;2024-03-22T03:08:14;8.93;90.59
69546;SHT31;56766;52.260;20.746;2024-03-22T03:10:40;8.92;90.60
69546;SHT31;56766;52.260;20.746;2024-03-22T03:13:07;8.89;90.60
69546;SHT31;56766;52.260;20.746;2024-03-22T03:15:34;8.87;90.64
69546;SHT31;56766;52.260;20.746;2024-03-22T03:18:00;8.84;90.70
69546;SHT31;56766;52.260;20.746;2024-03-22T03:20:27;8.80;90.79
69546;SHT31;56766;52.260;20.746;2024-03-22T03:22:53;8.76;90.81
69546;SHT31;56766;52.260;20.746;2024-03-22T03:25:20;8.71;90.82
69546;SHT31;56766;52.260;20.746;2024-03-22T03:27:49;8.66;90.87
69546;SHT31;56766;52.260;20.746;2024-03-22T03:30:15;8.62;90.90
69546;SHT31;56766;52.260;20.746;2024-03-22T03:32:42;8.57;90.95
69546;SHT31;56766;52.260;20.746;2024-03-22T03:35:08;8.52;91.01
69546;SHT31;56766;52.260;20.746;2024-03-22T03:37:35;8.49;91.10
69546;SHT31;56766;52.260;20.746;2024-03-22T03:40:01;8.46;91.13
69546;SHT31;56766;52.260;20.746;2024-03-22T03:42:28;8.43;91.21
69546;SHT31;56766;52.260;20.746;2024-03-22T03:44:55;8.36;91.19
69546;SHT31;56766;52.260;20.746;2024-03-22T03:47:21;8.27;91.13
69546;SHT31;56766;52.260;20.746;2024-03-22T03:49:48;8.17;91.17
69546;SHT31;56766;52.260;20.746;2024-03-22T03:52:14;8.09;91.19
69546;SHT31;56766;52.260;20.746;2024-03-22T03:54:41;8.02;91.20
69546;SHT31;56766;52.260;20.746;2024-03-22T03:57:07;7.95;91.23
69546;SHT31;56766;52.260;20.746;2024-03-22T03:59:34;7.89;91.28
69546;SHT31;56766;52.260;20.746;2024-03-22T04:02:01;7.81;91.32
69546;SHT31;56766;52.260;20.746;2024-03-22T04:04:27;7.77;91.31
69546;SHT31;56766;52.260;20.746;2024-03-22T04:06:54;7.72;91.36
69546;SHT31;56766;52.260;20.746;2024-03-22T04:09:20;7.68;91.38
69546;SHT31;56766;52.260;20.746;2024-03-22T04:11:47;7.62;91.43
69546;SHT31;56766;52.260;20.746;2024-03-22T04:14:14;7.59;91.46
69546;SHT31;56766;52.260;20.746;2024-03-22T04:16:40;7.55;91.50
69546;SHT31;56766;52.260;20.746;2024-03-22T04:19:07;7.53;91.50
69546;SHT31;56766;52.260;20.746;2024-03-22T04:21:34;7.50;91.59
69546;SHT31;56766;52.260;20.746;2024-03-22T04:24:00;7.48;91.58
69546;SHT31;56766;52.260;20.746;2024-03-22T04:26:27;7.45;91.60
69546;SHT31;56766;52.260;20.746;2024-03-22T04:28:53;7.45;91.60
69546;SHT31;56766;52.260;20.746;2024-03-22T04:31:20;7.43;91.60
69546;SHT31;56766;52.260;20.746;2024-03-22T04:33:46;7.40;91.67
69546;SHT31;56766;52.260;20.746;2024-03-22T04:36:13;7.38;91.67
69546;SHT31;56766;52.260;20.746;2024-03-22T04:38:39;7.36;91.69
69546;SHT31;56766;52.260;20.746;2024-03-22T04:41:06;7.33;91.70
69546;SHT31;56766;52.260;20.746;2024-03-22T04:43:32;7.32;91.70
69546;SHT31;56766;52.260;20.746;2024-03-22T04:45:59;7.30;91.70
69546;SHT31;56766;52.260;20.746;2024-03-22T04:48:28;7.29;91.70
69546;SHT31;56766;52.260;20.746;2024-03-22T04:50:54;7.28;91.71
69546;SHT31;56766;52.260;20.746;2024-03-22T04:53:21;7.27;91.70
69546;SHT31;56766;52.260;20.746;2024-03-22T04:55:49;7.25;91.70
69546;SHT31;56766;52.260;20.746;2024-03-22T04:58:18;7.25;91.67
69546;SHT31;56766;52.260;20.746;2024-03-22T05:00:46;7.23;91.62
69546;SHT31;56766;52.260;20.746;2024-03-22T05:03:15;7.21;91.63
69546;SHT31;56766;52.260;20.746;2024-03-22T05:05:43;7.20;91.61
69546;SHT31;56766;52.260;20.746;2024-03-22T05:08:09;7.20;91.61
69546;SHT31;56766;52.260;20.746;2024-03-22T05:10:36;7.20;91.60
69546;SHT31;56766;52.260;20.746;2024-03-22T05:13:03;7.23;91.60
69546;SHT31;56766;52.260;20.746;2024-03-22T05:15:30;7.26;91.60
69546;SHT31;56766;52.260;20.746;2024-03-22T05:17:57;7.26;91.51
69546;SHT31;56766;52.260;20.746;2024-03-22T05:20:24;7.27;91.50
69546;SHT31;56766;52.260;20.746;2024-03-22T05:22:52;7.29;91.50
69546;SHT31;56766;52.260;20.746;2024-03-22T05:25:19;7.29;91.49
69546;SHT31;56766;52.260;20.746;2024-03-22T05:27:45;7.28;91.42
69546;SHT31;56766;52.260;20.746;2024-03-22T05:30:13;7.28;91.40
69546;SHT31;56766;52.260;20.746;2024-03-22T05:32:41;7.31;91.40
69546;SHT31;56766;52.260;20.746;2024-03-22T05:35:08;7.30;91.40
69546;SHT31;56766;52.260;20.746;2024-03-22T05:37:35;7.29;91.31
69546;SHT31;56766;52.260;20.746;2024-03-22T05:40:03;7.30;91.38
69546;SHT31;56766;52.260;20.746;2024-03-22T05:42:33;7.30;91.32
69546;SHT31;56766;52.260;20.746;2024-03-22T05:44:59;7.34;91.31
69546;SHT31;56766;52.260;20.746;2024-03-22T05:47:26;7.34;91.30
69546;SHT31;56766;52.260;20.746;2024-03-22T05:49:52;7.35;91.28
69546;SHT31;56766;52.260;20.746;2024-03-22T05:52:19;7.35;91.27
69546;SHT31;56766;52.260;20.746;2024-03-22T05:54:45;7.37;91.26
69546;SHT31;56766;52.260;20.746;2024-03-22T05:57:13;7.39;91.20
69546;SHT31;56766;52.260;20.746;2024-03-22T05:59:39;7.41;91.18
69546;SHT31;56766;52.260;20.746;2024-03-22T06:02:06;7.45;91.20
69546;SHT31;56766;52.260;20.746;2024-03-22T06:04:33;7.51;91.18
69546;SHT31;56766;52.260;20.746;2024-03-22T06:07:00;7.55;91.04
69546;SHT31;56766;52.260;20.746;2024-03-22T06:09:29;7.59;90.99
69546;SHT31;56766;52.260;20.746;2024-03-22T06:12:16;7.65;91.00
69546;SHT31;56766;52.260;20.746;2024-03-22T06:14:42;7.67;90.86
69546;SHT31;56766;52.260;20.746;2024-03-22T06:17:09;7.68;90.80
69546;SHT31;56766;52.260;20.746;2024-03-22T06:19:37;7.70;90.80
69546;SHT31;56766;52.260;20.746;2024-03-22T06:22:04;7.75;90.80
69546;SHT31;56766;52.260;20.746;2024-03-22T06:24:30;7.81;90.80
69546;SHT31;56766;52.260;20.746;2024-03-22T06:26:57;7.86;90.73
69546;SHT31;56766;52.260;20.746;2024-03-22T06:29:24;7.90;90.70
69546;SHT31;56766;52.260;20.746;2024-03-22T06:31:50;7.98;90.71
69546;SHT31;56766;52.260;20.746;2024-03-22T06:34:18;8.05;90.76
69546;SHT31;56766;52.260;20.746;2024-03-22T06:36:46;8.12;90.68
69546;SHT31;56766;52.260;20.746;2024-03-22T06:39:13;8.20;90.70
69546;SHT31;56766;52.260;20.746;2024-03-22T06:41:40;8.28;90.68
69546;SHT31;56766;52.260;20.746;2024-03-22T06:44:07;8.28;90.53
69546;SHT31;56766;52.260;20.746;2024-03-22T06:46:35;8.33;90.54
69546;SHT31;56766;52.260;20.746;2024-03-22T06:49:03;8.40;90.51
69546;SHT31;56766;52.260;20.746;2024-03-22T06:51:30;8.44;90.49
69546;SHT31;56766;52.260;20.746;2024-03-22T06:53:56;8.47;90.36
69546;SHT31;56766;52.260;20.746;2024-03-22T06:56:23;8.46;90.31
69546;SHT31;56766;52.260;20.746;2024-03-22T06:58:49;8.47;90.24
69546;SHT31;56766;52.260;20.746;2024-03-22T07:01:16;8.47;90.25
69546;SHT31;56766;52.260;20.746;2024-03-22T07:03:42;8.46;90.13
69546;SHT31;56766;52.260;20.746;2024-03-22T07:06:14;8.44;90.10
69546;SHT31;56766;52.260;20.746;2024-03-22T07:08:41;8.47;90.17
69546;SHT31;56766;52.260;20.746;2024-03-22T07:11:08;8.49;90.20
69546;SHT31;56766;52.260;20.746;2024-03-22T07:13:35;8.52;90.16
69546;SHT31;56766;52.260;20.746;2024-03-22T07:16:03;8.56;90.11
69546;SHT31;56766;52.260;20.746;2024-03-22T07:18:30;8.65;90.20
69546;SHT31;56766;52.260;20.746;2024-03-22T07:20:57;8.75;90.22
69546;SHT31;56766;52.260;20.746;2024-03-22T07:23:28;8.80;90.10
69546;SHT31;56766;52.260;20.746;2024-03-22T07:25:54;8.85;90.06
69546;SHT31;56766;52.260;20.746;2024-03-22T07:28:21;8.88;89.99
69546;SHT31;56766;52.260;20.746;2024-03-22T07:30:47;8.91;89.90
69546;SHT31;56766;52.260;20.746;2024-03-22T07:33:14;8.93;89.75
69546;SHT31;56766;52.260;20.746;2024-03-22T07:35:43;8.96;89.70
69546;SHT31;56766;52.260;20.746;2024-03-22T07:38:10;9.02;89.69
69546;SHT31;56766;52.260;20.746;2024-03-22T07:40:37;9.03;89.60
69546;SHT31;56766;52.260;20.746;2024-03-22T07:43:03;9.07;89.55
69546;SHT31;56766;52.260;20.746;2024-03-22T07:45:34;9.13;89.50
69546;SHT31;56766;52.260;20.746;2024-03-22T07:48:01;9.15;89.32
69546;SHT31;56766;52.260;20.746;2024-03-22T07:50:28;9.21;89.33
69546;SHT31;56766;52.260;20.746;2024-03-22T07:52:55;9.27;89.30
69546;SHT31;56766;52.260;20.746;2024-03-22T07:55:23;9.35;89.23
69546;SHT31;56766;52.260;20.746;2024-03-22T07:57:49;9.43;89.18
69546;SHT31;56766;52.260;20.746;2024-03-22T08:00:16;9.51;89.12
69546;SHT31;56766;52.260;20.746;2024-03-22T08:02:43;9.55;89.08
69546;SHT31;56766;52.260;20.746;2024-03-22T08:05:09;9.58;89.06
69546;SHT31;56766;52.260;20.746;2024-03-22T08:07:36;9.56;88.80
69546;SHT31;56766;52.260;20.746;2024-03-22T08:10:02;9.51;88.67
69546;SHT31;56766;52.260;20.746;2024-03-22T08:12:31;9.47;88.67
69546;SHT31;56766;52.260;20.746;2024-03-22T08:14:58;9.48;88.64
69546;SHT31;56766;52.260;20.746;2024-03-22T08:17:24;9.49;88.59
69546;SHT31;56766;52.260;20.746;2024-03-22T08:19:51;9.52;88.53
69546;SHT31;56766;52.260;20.746;2024-03-22T08:22:18;9.54;88.41
69546;SHT31;56766;52.260;20.746;2024-03-22T08:24:44;9.60;88.44
69546;SHT31;56766;52.260;20.746;2024-03-22T08:27:11;9.66;88.37
69546;SHT31;56766;52.260;20.746;2024-03-22T08:29:40;9.69;88.30
69546;SHT31;56766;52.260;20.746;2024-03-22T08:32:07;9.68;88.23
69546;SHT31;56766;52.260;20.746;2024-03-22T08:34:34;9.69;88.17
69546;SHT31;56766;52.260;20.746;2024-03-22T08:37:00;9.73;88.06
69546;SHT31;56766;52.260;20.746;2024-03-22T08:39:27;9.78;87.99
69546;SHT31;56766;52.260;20.746;2024-03-22T08:41:53;9.85;88.05
69546;SHT31;56766;52.260;20.746;2024-03-22T08:44:21;9.94;87.95
69546;SHT31;56766;52.260;20.746;2024-03-22T08:46:47;10.10;88.00
69546;SHT31;56766;52.260;20.746;2024-03-22T08:49:14;10.29;87.96
69546;SHT31;56766;52.260;20.746;2024-03-22T08:51:41;10.45;87.82
69546;SHT31;56766;52.260;20.746;2024-03-22T08:54:07;10.57;87.82
69546;SHT31;56766;52.260;20.746;2024-03-22T08:56:34;10.69;87.73
69546;SHT31;56766;52.260;20.746;2024-03-22T08:59:00;10.77;87.46
69546;SHT31;56766;52.260;20.746;2024-03-22T09:01:27;10.81;87.33
69546;SHT31;56766;52.260;20.746;2024-03-22T09:03:53;10.86;87.21
69546;SHT31;56766;52.260;20.746;2024-03-22T09:06:20;10.89;86.98
69546;SHT31;56766;52.260;20.746;2024-03-22T09:08:47;10.89;86.94
69546;SHT31;56766;52.260;20.746;2024-03-22T09:11:14;10.81;86.54
69546;SHT31;56766;52.260;20.746;2024-03-22T09:13:40;10.67;86.16
69546;SHT31;56766;52.260;20.746;2024-03-22T09:16:07;10.56;86.13
69546;SHT31;56766;52.260;20.746;2024-03-22T09:18:33;10.45;86.15
69546;SHT31;56766;52.260;20.746;2024-03-22T09:21:00;10.37;86.27
69546;SHT31;56766;52.260;20.746;2024-03-22T09:23:26;10.29;86.32
69546;SHT31;56766;52.260;20.746;2024-03-22T09:25:53;10.22;86.27
69546;SHT31;56766;52.260;20.746;2024-03-22T09:28:19;10.16;86.35
69546;SHT31;56766;52.260;20.746;2024-03-22T09:30:46;10.09;86.24
69546;SHT31;56766;52.260;20.746;2024-03-22T09:33:13;10.02;86.28
69546;SHT31;56766;52.260;20.746;2024-03-22T09:35:40;9.98;86.43
69546;SHT31;56766;52.260;20.746;2024-03-22T09:38:07;9.97;86.46
69546;SHT31;56766;52.260;20.746;2024-03-22T09:40:34;10.00;86.61
69546;SHT31;56766;52.260;20.746;2024-03-22T09:43:06;10.00;86.62
69546;SHT31;56766;52.260;20.746;2024-03-22T09:45:34;9.97;86.63
69546;SHT31;56766;52.260;20.746;2024-03-22T09:48:01;9.93;86.53
69546;SHT31;56766;52.260;20.746;2024-03-22T09:50:28;9.95;86.71
69546;SHT31;56766;52.260;20.746;2024-03-22T09:52:56;10.01;86.88
69546;SHT31;56766;52.260;20.746;2024-03-22T09:55:24;10.06;86.96
69546;SHT31;56766;52.260;20.746;2024-03-22T09:57:51;10.09;87.05
69546;SHT31;56766;52.260;20.746;2024-03-22T10:00:20;10.09;87.02
69546;SHT31;56766;52.260;20.746;2024-03-22T10:02:52;10.06;87.02
69546;SHT31;56766;52.260;20.746;2024-03-22T10:05:19;10.03;87.06
69546;SHT31;56766;52.260;20.746;2024-03-22T10:07:47;9.98;87.10
69546;SHT31;56766;52.260;20.746;2024-03-22T10:10:13;9.98;87.28
69546;SHT31;56766;52.260;20.746;2024-03-22T10:12:41;10.03;87.32
69546;SHT31;56766;52.260;20.746;2024-03-22T10:15:08;10.09;87.35
69546;SHT31;56766;52.260;20.746;2024-03-22T10:17:35;10.17;87.45
69546;SHT31;56766;52.260;20.746;2024-03-22T10:20:03;10.25;87.50
69546;SHT31;56766;52.260;20.746;2024-03-22T10:22:33;10.31;87.44
69546;SHT31;56766;52.260;20.746;2024-03-22T10:24:59;10.35;87.32
69546;SHT31;56766;52.260;20.746;2024-03-22T10:27:27;10.33;87.05
69546;SHT31;56766;52.260;20.746;2024-03-22T10:29:56;10.30;87.03
69546;SHT31;56766;52.260;20.746;2024-03-22T10:32:24;10.28;87.03
69546;SHT31;56766;52.260;20.746;2024-03-22T10:34:51;10.25;87.09
69546;SHT31;56766;52.260;20.746;2024-03-22T10:37:18;10.22;86.99
69546;SHT31;56766;52.260;20.746;2024-03-22T10:39:48;10.19;86.86
69546;SHT31;56766;52.260;20.746;2024-03-22T10:42:16;10.25;86.91
69546;SHT31;56766;52.260;20.746;2024-03-22T10:44:45;10.46;87.09
69546;SHT31;56766;52.260;20.746;2024-03-22T10:47:15;10.81;87.13
69546;SHT31;56766;52.260;20.746;2024-03-22T10:49:48;11.21;87.12
69546;SHT31;56766;52.260;20.746;2024-03-22T10:52:17;11.58;86.74
69546;SHT31;56766;52.260;20.746;2024-03-22T10:54:45;11.82;86.14
69546;SHT31;56766;52.260;20.746;2024-03-22T10:57:17;11.94;85.79
69546;SHT31;56766;52.260;20.746;2024-03-22T10:59:46;12.09;85.75
69546;SHT31;56766;52.260;20.746;2024-03-22T11:02:13;12.22;84.76
69546;SHT31;56766;52.260;20.746;2024-03-22T11:04:39;12.30;84.16
69546;SHT31;56766;52.260;20.746;2024-03-22T11:07:06;12.32;83.54
69546;SHT31;56766;52.260;20.746;2024-03-22T11:09:33;12.24;83.14
69546;SHT31;56766;52.260;20.746;2024-03-22T11:12:00;12.14;83.24
69546;SHT31;56766;52.260;20.746;2024-03-22T11:14:26;12.04;82.63
69546;SHT31;56766;52.260;20.746;2024-03-22T11:16:53;11.84;81.97
69546;SHT31;56766;52.260;20.746;2024-03-22T11:19:19;11.69;81.46
69546;SHT31;56766;52.260;20.746;2024-03-22T11:21:46;11.60;81.83
69546;SHT31;56766;52.260;20.746;2024-03-22T11:24:13;11.55;81.87
69546;SHT31;56766;52.260;20.746;2024-03-22T11:26:39;11.52;82.22
69546;SHT31;56766;52.260;20.746;2024-03-22T11:29:06;11.52;82.10
69546;SHT31;56766;52.260;20.746;2024-03-22T11:31:34;11.49;82.06
69546;SHT31;56766;52.260;20.746;2024-03-22T11:34:02;11.53;81.98
69546;SHT31;56766;52.260;20.746;2024-03-22T11:36:29;11.61;81.95
69546;SHT31;56766;52.260;20.746;2024-03-22T11:38:56;11.65;81.89
69546;SHT31;56766;52.260;20.746;2024-03-22T11:41:29;11.59;81.38
69546;SHT31;56766;52.260;20.746;2024-03-22T11:43:59;11.56;81.74
69546;SHT31;56766;52.260;20.746;2024-03-22T11:46:27;11.48;81.57
69546;SHT31;56766;52.260;20.746;2024-03-22T11:48:54;11.41;81.44
69546;SHT31;56766;52.260;20.746;2024-03-22T11:51:22;11.38;81.40
69546;SHT31;56766;52.260;20.746;2024-03-22T11:53:52;11.38;81.45
69546;SHT31;56766;52.260;20.746;2024-03-22T11:56:24;11.42;81.38
69546;SHT31;56766;52.260;20.746;2024-03-22T11:58:58;11.45;81.57
69546;SHT31;56766;52.260;20.746;2024-03-22T12:01:26;11.42;81.21
69546;SHT31;56766;52.260;20.746;2024-03-22T12:03:53;11.40;81.50
69546;SHT31;56766;52.260;20.746;2024-03-22T12:06:21;11.39;81.63
69546;SHT31;56766;52.260;20.746;2024-03-22T12:08:48;11.35;81.39
69546;SHT31;56766;52.260;20.746;2024-03-22T12:11:14;11.33;81.54
69546;SHT31;56766;52.260;20.746;2024-03-22T12:13:41;11.30;81.74
69546;SHT31;56766;52.260;20.746;2024-03-22T12:16:08;11.25;81.63
69546;SHT31;56766;52.260;20.746;2024-03-22T12:18:34;11.19;81.42
69546;SHT31;56766;52.260;20.746;2024-03-22T12:21:01;11.17;81.57
69546;SHT31;56766;52.260;20.746;2024-03-22T12:23:28;11.24;81.63
69546;SHT31;56766;52.260;20.746;2024-03-22T12:25:54;11.40;81.71
69546;SHT31;56766;52.260;20.746;2024-03-22T12:28:22;11.54;81.77
69546;SHT31;56766;52.260;20.746;2024-03-22T12:30:50;11.66;81.50
69546;SHT31;56766;52.260;20.746;2024-03-22T12:33:16;11.76;81.14
69546;SHT31;56766;52.260;20.746;2024-03-22T12:35:43;11.83;80.56
69546;SHT31;56766;52.260;20.746;2024-03-22T12:38:10;11.85;80.49
69546;SHT31;56766;52.260;20.746;2024-03-22T12:40:38;11.92;80.56
69546;SHT31;56766;52.260;20.746;2024-03-22T12:43:05;11.93;80.09
69546;SHT31;56766;52.260;20.746;2024-03-22T12:45:32;11.91;79.96
69546;SHT31;56766;52.260;20.746;2024-03-22T12:47:59;11.88;79.60
69546;SHT31;56766;52.260;20.746;2024-03-22T12:50:27;11.85;79.49
69546;SHT31;56766;52.260;20.746;2024-03-22T12:52:54;11.85;79.67
69546;SHT31;56766;52.260;20.746;2024-03-22T12:55:20;11.80;79.28
69546;SHT31;56766;52.260;20.746;2024-03-22T12:57:47;11.77;79.56
69546;SHT31;56766;52.260;20.746;2024-03-22T13:00:14;11.81;79.64
69546;SHT31;56766;52.260;20.746;2024-03-22T13:02:45;11.83;79.45
69546;SHT31;56766;52.260;20.746;2024-03-22T13:05:13;11.81;79.60
69546;SHT31;56766;52.260;20.746;2024-03-22T13:07:42;11.80;79.16
69546;SHT31;56766;52.260;20.746;2024-03-22T13:10:09;11.76;78.80
69546;SHT31;56766;52.260;20.746;2024-03-22T13:12:36;11.75;79.01
69546;SHT31;56766;52.260;20.746;2024-03-22T13:15:04;11.83;79.34
69546;SHT31;56766;52.260;20.746;2024-03-22T13:17:31;11.97;79.68
69546;SHT31;56766;52.260;20.746;2024-03-22T13:19:57;12.10;79.67
69546;SHT31;56766;52.260;20.746;2024-03-22T13:22:24;12.22;79.53
69546;SHT31;56766;52.260;20.746;2024-03-22T13:24:51;12.24;79.23
69546;SHT31;56766;52.260;20.746;2024-03-22T13:27:18;12.25;79.10
69546;SHT31;56766;52.260;20.746;2024-03-22T13:29:46;12.29;79.09
69546;SHT31;56766;52.260;20.746;2024-03-22T13:32:13;12.33;79.19
69546;SHT31;56766;52.260;20.746;2024-03-22T13:34:39;12.36;79.02
69546;SHT31;56766;52.260;20.746;2024-03-22T13:37:06;12.39;78.52
69546;SHT31;56766;52.260;20.746;2024-03-22T13:39:33;12.43;78.45
69546;SHT31;56766;52.260;20.746;2024-03-22T13:42:01;12.49;78.66
69546;SHT31;56766;52.260;20.746;2024-03-22T13:44:28;12.53;78.51
69546;SHT31;56766;52.260;20.746;2024-03-22T13:46:55;12.52;78.06
69546;SHT31;56766;52.260;20.746;2024-03-22T13:49:22;12.51;78.07
69546;SHT31;56766;52.260;20.746;2024-03-22T13:51:49;12.45;78.05
69546;SHT31;56766;52.260;20.746;2024-03-22T13:54:16;12.36;77.97
69546;SHT31;56766;52.260;20.746;2024-03-22T13:56:43;12.22;77.39
69546;SHT31;56766;52.260;20.746;2024-03-22T13:59:10;12.08;77.71
69546;SHT31;56766;52.260;20.746;2024-03-22T14:01:37;11.99;78.09
69546;SHT31;56766;52.260;20.746;2024-03-22T14:04:04;11.91;78.18
69546;SHT31;56766;52.260;20.746;2024-03-22T14:06:33;11.87;78.33
69546;SHT31;56766;52.260;20.746;2024-03-22T14:09:00;11.83;78.43
69546;SHT31;56766;52.260;20.746;2024-03-22T14:11:31;11.81;78.54
69546;SHT31;56766;52.260;20.746;2024-03-22T14:13:58;11.81;78.45
69546;SHT31;56766;52.260;20.746;2024-03-22T14:16:24;11.78;78.33
69546;SHT31;56766;52.260;20.746;2024-03-22T14:18:52;11.76;78.60
69546;SHT31;56766;52.260;20.746;2024-03-22T14:21:19;11.72;78.68
69546;SHT31;56766;52.260;20.746;2024-03-22T14:23:47;11.69;78.88
69546;SHT31;56766;52.260;20.746;2024-03-22T14:26:15;11.67;78.95
69546;SHT31;56766;52.260;20.746;2024-03-22T14:28:44;11.64;79.08
69546;SHT31;56766;52.260;20.746;2024-03-22T14:31:11;11.59;79.30
69546;SHT31;56766;52.260;20.746;2024-03-22T14:33:39;11.53;79.63
69546;SHT31;56766;52.260;20.746;2024-03-22T14:36:07;11.49;79.79
69546;SHT31;56766;52.260;20.746;2024-03-22T14:38:35;11.47;79.78
69546;SHT31;56766;52.260;20.746;2024-03-22T14:41:05;11.41;79.91
69546;SHT31;56766;52.260;20.746;2024-03-22T14:43:32;11.34;79.93
69546;SHT31;56766;52.260;20.746;2024-03-22T14:46:02;11.29;79.88
69546;SHT31;56766;52.260;20.746;2024-03-22T14:48:29;11.23;79.89
69546;SHT31;56766;52.260;20.746;2024-03-22T14:50:56;11.16;80.04
69546;SHT31;56766;52.260;20.746;2024-03-22T14:53:22;11.12;80.34
69546;SHT31;56766;52.260;20.746;2024-03-22T14:55:57;11.07;80.33
69546;SHT31;56766;52.260;20.746;2024-03-22T14:58:25;11.02;80.53
69546;SHT31;56766;52.260;20.746;2024-03-22T15:00:58;10.98;80.65
69546;SHT31;56766;52.260;20.746;2024-03-22T15:03:27;10.92;80.78
69546;SHT31;56766;52.260;20.746;2024-03-22T15:05:56;10.86;80.96
69546;SHT31;56766;52.260;20.746;2024-03-22T15:08:26;10.81;81.21
69546;SHT31;56766;52.260;20.746;2024-03-22T15:10:57;10.76;81.39
69546;SHT31;56766;52.260;20.746;2024-03-22T15:13:23;10.74;81.56
69546;SHT31;56766;52.260;20.746;2024-03-22T15:15:54;10.73;81.77
69546;SHT31;56766;52.260;20.746;2024-03-22T15:18:23;10.73;81.93
69546;SHT31;56766;52.260;20.746;2024-03-22T15:20:50;10.71;82.07
69546;SHT31;56766;52.260;20.746;2024-03-22T15:23:18;10.67;82.17
69546;SHT31;56766;52.260;20.746;2024-03-22T15:25:48;10.62;82.16